createdAt,value
2024-02-15T00:01:44.942Z,8.40
2024-02-15T00:04:12.235Z,8.40
2024-02-15T00:06:39.147Z,8.40
2024-02-15T00:09:05.892Z,8.40
2024-02-15T00:11:33.554Z,8.40
2024-02-15T00:14:00.177Z,8.40
2024-02-15T00:16:28.458Z,8.40
2024-02-15T00:18:56.464Z,8.40
2024-02-15T00:21:23.940Z,8.40
2024-02-15T00:23:51.274Z,8.40
2024-02-15T00:26:17.870Z,8.40
2024-02-15T00:28:44.461Z,8.40
2024-02-15T00:31:11.314Z,8.40
2024-02-15T00:33:38.277Z,8.40
2024-02-15T00:36:05.670Z,8.40
2024-02-15T00:38:36.021Z,8.40
2024-02-15T00:41:03.457Z,8.40
2024-02-15T00:43:30.184Z,8.40
2024-02-15T00:45:57.537Z,8.40
2024-02-15T00:48:26.894Z,8.40
2024-02-15T00:50:54.366Z,8.40
2024-02-15T00:53:21.528Z,8.50
2024-02-15T00:55:48.108Z,8.40
2024-02-15T00:58:14.708Z,8.40
2024-02-15T01:00:41.332Z,8.50
2024-02-15T01:03:07.964Z,8.50
2024-02-15T01:05:35.539Z,8.50
2024-02-15T01:08:02.275Z,8.50
2024-02-15T01:10:28.983Z,8.50
2024-02-15T01:12:55.597Z,8.50
2024-02-15T01:15:22.631Z,8.50
2024-02-15T01:17:49.287Z,8.50
2024-02-15T01:20:16.502Z,8.50
2024-02-15T01:22:45.221Z,8.50
2024-02-15T01:25:12.140Z,8.50
2024-02-15T01:27:39.959Z,8.50
2024-02-15T01:30:07.046Z,8.50
2024-02-15T01:32:33.805Z,8.50
2024-02-15T01:35:00.531Z,8.50
2024-02-15T01:37:27.221Z,8.50
2024-02-15T01:39:53.844Z,8.50
2024-02-15T01:42:20.467Z,8.50
2024-02-15T01:44:48.825Z,8.50
2024-02-15T01:47:16.732Z,8.40
2024-02-15T01:49:43.482Z,8.40
2024-02-15T01:52:10.584Z,8.40
2024-02-15T01:54:37.266Z,8.40
2024-02-15T01:57:04.501Z,8.40
2024-02-15T01:59:31.621Z,8.40
2024-02-15T02:01:58.224Z,8.40
2024-02-15T02:04:24.846Z,8.40
2024-02-15T02:06:51.517Z,8.40
2024-02-15T02:09:18.572Z,8.40
2024-02-15T02:11:49.312Z,8.40
2024-02-15T02:14:16.015Z,8.40
2024-02-15T02:16:42.875Z,8.40
2024-02-15T02:19:10.419Z,8.40
2024-02-15T02:21:37.456Z,8.40
2024-02-15T02:24:10.687Z,8.50
2024-02-15T02:26:37.409Z,8.40
2024-02-15T02:29:08.096Z,8.50
2024-02-15T02:31:35.563Z,8.50
2024-02-15T02:34:02.399Z,8.50
2024-02-15T02:36:30.322Z,8.50
2024-02-15T02:39:01.313Z,8.50
2024-02-15T02:41:29.217Z,8.50
2024-02-15T02:43:56.680Z,8.50
2024-02-15T02:46:23.269Z,8.50
2024-02-15T02:48:50.079Z,8.50
2024-02-15T02:51:16.957Z,8.50
2024-02-15T02:53:43.619Z,8.50
2024-02-15T02:56:10.378Z,8.50
2024-02-15T02:58:37.074Z,8.50
2024-02-15T03:01:03.873Z,8.50
2024-02-15T03:03:31.425Z,8.50
2024-02-15T03:05:58.111Z,8.40
2024-02-15T03:08:25.148Z,8.40
2024-02-15T03:10:52.263Z,8.40
2024-02-15T03:13:20.053Z,8.40
2024-02-15T03:15:48.752Z,8.40
2024-02-15T03:18:17.320Z,8.40
2024-02-15T03:20:44.458Z,8.40
2024-02-15T03:23:12.164Z,8.40
2024-02-15T03:25:39.119Z,8.40
2024-02-15T03:28:05.842Z,8.40
2024-02-15T03:30:33.164Z,8.40
2024-02-15T03:32:59.955Z,8.40
2024-02-15T03:35:27.467Z,8.40
2024-02-15T03:37:54.172Z,8.30
2024-02-15T03:40:21.389Z,8.30
2024-02-15T03:42:48.348Z,8.30
2024-02-15T03:45:14.997Z,8.30
2024-02-15T03:47:41.774Z,8.30
2024-02-15T03:50:11.734Z,8.30
2024-02-15T03:52:38.597Z,8.30
2024-02-15T03:55:05.888Z,8.30
2024-02-15T03:57:32.468Z,8.20
2024-02-15T03:59:59.235Z,8.20
2024-02-15T04:02:30.125Z,8.20
2024-02-15T04:04:57.173Z,8.20
2024-02-15T04:07:26.479Z,8.20
2024-02-15T04:09:53.341Z,8.20
2024-02-15T04:12:19.964Z,8.20
2024-02-15T04:14:46.792Z,8.10
2024-02-15T04:17:15.089Z,8.10
2024-02-15T04:19:41.785Z,8.10
2024-02-15T04:22:08.519Z,8.00
2024-02-15T04:24:35.750Z,8.00
2024-02-15T04:27:02.412Z,7.90
2024-02-15T04:29:29.738Z,7.90
2024-02-15T04:31:56.372Z,7.80
2024-02-15T04:34:23.553Z,7.80
2024-02-15T04:36:57.040Z,7.70
2024-02-15T04:39:28.097Z,7.60
2024-02-15T04:41:54.814Z,7.60
2024-02-15T04:44:21.439Z,7.50
2024-02-15T04:46:48.318Z,7.40
2024-02-15T04:49:15.362Z,7.40
2024-02-15T04:51:42.304Z,7.30
2024-02-15T04:54:09.268Z,7.30
2024-02-15T04:56:37.328Z,7.30
2024-02-15T04:59:04.030Z,7.30
2024-02-15T05:01:33.285Z,7.30
2024-02-15T05:03:59.950Z,7.30
2024-02-15T05:06:30.885Z,7.30
2024-02-15T05:08:58.506Z,7.30
2024-02-15T05:11:25.256Z,7.30
2024-02-15T05:13:51.875Z,7.30
2024-02-15T05:16:18.972Z,7.30
2024-02-15T05:18:46.628Z,7.30
2024-02-15T05:21:14.205Z,7.30
2024-02-15T05:23:41.146Z,7.30
2024-02-15T05:26:08.458Z,7.30
2024-02-15T05:28:35.711Z,7.30
2024-02-15T05:31:12.172Z,7.30
2024-02-15T05:33:43.752Z,7.30
2024-02-15T05:36:13.810Z,7.40
2024-02-15T05:38:41.104Z,7.40
2024-02-15T05:41:11.408Z,7.40
2024-02-15T05:43:42.629Z,7.40
2024-02-15T05:46:09.832Z,7.40
2024-02-15T05:48:37.825Z,7.40
2024-02-15T05:51:05.304Z,7.50
2024-02-15T05:53:36.938Z,7.50
2024-02-15T05:56:07.908Z,7.50
2024-02-15T05:58:34.577Z,7.50
2024-02-15T06:01:03.055Z,7.50
2024-02-15T06:03:29.978Z,7.50
2024-02-15T06:05:59.895Z,7.50
2024-02-15T06:08:26.714Z,7.60
2024-02-15T06:10:54.098Z,7.60
2024-02-15T06:13:21.505Z,7.60
2024-02-15T06:15:53.386Z,7.60
2024-02-15T06:18:25.601Z,7.60
2024-02-15T06:20:54.109Z,7.60
2024-02-15T06:23:22.349Z,7.60
2024-02-15T06:25:48.962Z,7.60
2024-02-15T06:28:41.253Z,7.70
2024-02-15T06:31:30.184Z,7.70
2024-02-15T06:34:16.059Z,7.70
2024-02-15T06:37:25.469Z,7.70
2024-02-15T06:39:52.903Z,7.70
2024-02-15T06:42:20.888Z,7.70
2024-02-15T06:44:48.555Z,7.70
2024-02-15T06:47:17.929Z,7.70
2024-02-15T06:49:46.881Z,7.70
2024-02-15T06:52:14.677Z,7.70
2024-02-15T06:54:42.009Z,7.70
2024-02-15T06:57:08.926Z,7.70
2024-02-15T06:59:35.824Z,7.80
2024-02-15T07:02:02.829Z,7.80
2024-02-15T07:04:30.532Z,7.80
2024-02-15T07:06:58.112Z,7.80
2024-02-15T07:09:25.716Z,7.80
2024-02-15T07:11:52.843Z,7.90
2024-02-15T07:14:20.688Z,7.90
2024-02-15T07:16:47.989Z,7.90
2024-02-15T07:19:15.204Z,7.90
2024-02-15T07:21:42.204Z,7.90
2024-02-15T07:24:09.018Z,8.00
2024-02-15T07:26:37.494Z,8.00
2024-02-15T07:29:07.250Z,8.00
2024-02-15T07:31:34.399Z,8.10
2024-02-15T07:34:01.336Z,8.10
2024-02-15T07:36:28.532Z,8.20
2024-02-15T07:38:57.480Z,8.20
2024-02-15T07:41:25.352Z,8.30
2024-02-15T07:43:53.778Z,8.30
2024-02-15T07:46:20.455Z,8.40
2024-02-15T07:48:47.607Z,8.40
2024-02-15T07:51:19.362Z,8.50
2024-02-15T07:53:46.545Z,8.50
2024-02-15T07:56:14.359Z,8.60
2024-02-15T07:58:50.969Z,8.60
2024-02-15T08:01:22.841Z,8.60
2024-02-15T08:03:50.045Z,8.70
2024-02-15T08:06:17.712Z,8.70
2024-02-15T08:08:48.052Z,8.70
2024-02-15T08:11:18.297Z,8.70
2024-02-15T08:13:50.674Z,8.80
2024-02-15T08:16:17.889Z,8.80
2024-02-15T08:18:48.098Z,8.80
2024-02-15T08:21:15.852Z,8.80
2024-02-15T08:23:42.873Z,8.90
2024-02-15T08:26:12.062Z,8.90
2024-02-15T08:28:38.821Z,8.90
2024-02-15T08:31:05.510Z,8.90
2024-02-15T08:33:32.849Z,9.00
2024-02-15T08:35:59.822Z,9.00
2024-02-15T08:38:26.480Z,9.00
2024-02-15T08:40:53.103Z,9.00
2024-02-15T08:43:19.800Z,9.00
2024-02-15T08:45:46.492Z,9.00
2024-02-15T08:48:13.219Z,9.10
2024-02-15T08:50:40.410Z,9.10
2024-02-15T08:53:07.727Z,9.10
2024-02-15T08:55:36.739Z,9.10
2024-02-15T08:58:04.013Z,9.10
2024-02-15T09:00:31.031Z,9.10
2024-02-15T09:02:58.494Z,9.20
2024-02-15T09:05:25.589Z,9.20
2024-02-15T09:07:52.801Z,9.20
2024-02-15T09:10:20.268Z,9.20
2024-02-15T09:12:50.484Z,9.30
2024-02-15T09:15:17.651Z,9.30
2024-02-15T09:17:46.500Z,9.30
2024-02-15T09:20:16.942Z,9.40
2024-02-15T09:22:44.270Z,9.40
2024-02-15T09:25:14.598Z,9.50
2024-02-15T09:27:41.413Z,9.60
2024-02-15T09:30:10.586Z,9.70
2024-02-15T09:32:37.587Z,9.70
2024-02-15T09:35:08.893Z,9.80
2024-02-15T09:37:40.006Z,9.90
2024-02-15T09:40:11.395Z,10.00
2024-02-15T09:42:40.145Z,10.10
2024-02-15T09:45:07.100Z,10.10
2024-02-15T09:47:37.312Z,10.20
2024-02-15T09:50:14.941Z,10.30
2024-02-15T09:52:44.616Z,10.40
2024-02-15T09:55:14.154Z,10.40
2024-02-15T09:57:43.173Z,10.50
2024-02-15T10:00:14.262Z,10.60
2024-02-15T10:02:47.955Z,10.70
2024-02-15T10:05:14.545Z,10.70
2024-02-15T10:07:45.407Z,10.80
2024-02-15T10:10:17.357Z,10.90
2024-02-15T10:12:49.444Z,11.00
2024-02-15T10:15:29.780Z,11.10
2024-02-15T10:17:59.919Z,11.10
2024-02-15T10:20:26.789Z,11.20
2024-02-15T10:22:55.937Z,11.30
2024-02-15T10:25:23.685Z,11.30
2024-02-15T10:27:50.321Z,11.50
2024-02-15T10:30:20.885Z,11.60
2024-02-15T10:32:47.795Z,11.70
2024-02-15T10:35:23.546Z,11.80
2024-02-15T10:37:53.977Z,11.90
2024-02-15T10:40:21.982Z,12.00
2024-02-15T10:42:49.819Z,12.10
2024-02-15T10:45:19.023Z,12.10
2024-02-15T10:47:47.196Z,12.20
2024-02-15T10:50:14.312Z,12.20
2024-02-15T10:52:46.597Z,12.20
2024-02-15T10:55:14.823Z,12.30
2024-02-15T10:57:47.369Z,12.30
2024-02-15T11:00:22.004Z,12.40
2024-02-15T11:03:03.387Z,12.50
2024-02-15T11:05:35.662Z,12.60
2024-02-15T11:08:05.133Z,12.80
2024-02-15T11:10:32.793Z,13.00
2024-02-15T11:13:00.786Z,13.30
2024-02-15T11:15:36.239Z,13.50
2024-02-15T11:18:04.734Z,13.70
2024-02-15T11:20:34.752Z,13.90
2024-02-15T11:23:02.302Z,14.00
2024-02-15T11:25:32.577Z,14.10
2024-02-15T11:28:02.107Z,14.40
2024-02-15T11:30:37.790Z,14.50
2024-02-15T11:33:24.466Z,14.60
2024-02-15T11:36:07.808Z,14.60
2024-02-15T11:38:37.652Z,14.80
2024-02-15T11:41:07.640Z,15.00
2024-02-15T11:43:51.896Z,15.20
2024-02-15T11:46:19.432Z,15.30
2024-02-15T11:48:50.113Z,15.60
2024-02-15T11:51:34.695Z,15.80
2024-02-15T11:54:08.280Z,16.10
2024-02-15T11:56:51.940Z,16.30
2024-02-15T11:59:32.804Z,16.30
2024-02-15T12:02:18.587Z,16.10
2024-02-15T12:05:03.749Z,16.10
2024-02-15T12:07:50.476Z,15.90
2024-02-15T12:10:36.415Z,15.60
2024-02-15T12:13:21.510Z,15.60
2024-02-15T12:16:19.434Z,15.70
2024-02-15T12:18:48.720Z,16.00
2024-02-15T12:21:26.408Z,16.20
2024-02-15T12:23:53.724Z,16.20
2024-02-15T12:26:20.738Z,16.40
2024-02-15T12:28:57.208Z,16.60
2024-02-15T12:31:24.101Z,16.80
2024-02-15T12:34:02.110Z,17.00
2024-02-15T12:36:29.301Z,17.20
2024-02-15T12:38:59.710Z,17.20
2024-02-15T12:41:26.313Z,17.30
2024-02-15T12:43:58.078Z,17.30
2024-02-15T12:46:24.690Z,17.30
2024-02-15T12:48:52.776Z,17.20
2024-02-15T12:51:19.836Z,17.10
2024-02-15T12:53:46.705Z,17.10
2024-02-15T12:56:20.729Z,17.10
2024-02-15T12:58:47.540Z,17.00
2024-02-15T13:01:14.846Z,17.00
2024-02-15T13:03:41.521Z,17.10
2024-02-15T13:06:09.128Z,17.20
2024-02-15T13:08:37.008Z,17.30
2024-02-15T13:11:04.610Z,17.30
2024-02-15T13:13:31.657Z,17.50
2024-02-15T13:15:58.993Z,17.70
2024-02-15T13:18:29.383Z,17.70
2024-02-15T13:20:56.336Z,17.80
2024-02-15T13:23:24.280Z,17.90
2024-02-15T13:25:51.337Z,18.10
2024-02-15T13:28:18.238Z,18.30
2024-02-15T13:30:46.429Z,18.40
2024-02-15T13:33:14.260Z,18.50
2024-02-15T13:35:41.059Z,18.50
2024-02-15T13:38:10.047Z,18.40
2024-02-15T13:40:36.648Z,18.40
2024-02-15T13:43:05.844Z,18.30
2024-02-15T13:45:34.160Z,18.30
2024-02-15T13:48:04.090Z,18.30
2024-02-15T13:50:34.438Z,18.20
2024-02-15T13:53:01.388Z,18.00
2024-02-15T13:55:28.551Z,17.90
2024-02-15T13:57:58.591Z,17.70
2024-02-15T14:00:30.699Z,17.70
2024-02-15T14:02:59.090Z,17.60
2024-02-15T14:05:28.904Z,17.50
2024-02-15T14:07:56.417Z,17.50
2024-02-15T14:10:23.729Z,17.50
2024-02-15T14:12:50.804Z,17.70
2024-02-15T14:15:18.398Z,17.90
2024-02-15T14:17:45.625Z,18.20
2024-02-15T14:20:15.835Z,18.40
2024-02-15T14:22:45.986Z,18.60
2024-02-15T14:25:12.726Z,18.60
2024-02-15T14:27:40.444Z,18.60
2024-02-15T14:30:26.285Z,18.60
2024-02-15T14:33:05.461Z,18.70
2024-02-15T14:35:35.872Z,18.90
2024-02-15T14:38:11.657Z,18.90
2024-02-15T14:43:19.575Z,18.40
2024-02-15T14:45:46.651Z,18.20
2024-02-15T14:48:14.591Z,18.10
2024-02-15T14:50:41.619Z,17.90
2024-02-15T14:53:11.280Z,17.80
2024-02-15T14:55:40.096Z,17.80
2024-02-15T14:58:12.945Z,17.80
2024-02-15T15:00:42.759Z,17.90
2024-02-15T15:03:09.427Z,18.00
2024-02-15T15:05:54.779Z,18.20
2024-02-15T15:08:39.882Z,18.20
2024-02-15T15:11:25.345Z,18.00
2024-02-15T15:13:53.023Z,17.70
2024-02-15T15:16:21.900Z,17.50
2024-02-15T15:18:49.434Z,17.40
2024-02-15T15:21:20.042Z,17.30
2024-02-15T15:23:46.755Z,17.20
2024-02-15T15:26:20.229Z,16.90
2024-02-15T15:28:46.976Z,16.80
2024-02-15T15:31:13.637Z,16.60
2024-02-15T15:33:40.368Z,16.40
2024-02-15T15:36:08.273Z,16.10
2024-02-15T15:38:35.268Z,16.00
2024-02-15T15:41:04.478Z,15.80
2024-02-15T15:43:33.175Z,15.60
2024-02-15T15:45:59.774Z,15.50
2024-02-15T15:48:27.286Z,15.30
2024-02-15T15:50:54.900Z,15.20
2024-02-15T15:53:21.986Z,15.00
2024-02-15T15:55:48.679Z,14.90
2024-02-15T15:58:16.085Z,14.80
2024-02-15T16:00:42.769Z,14.70
2024-02-15T16:03:10.016Z,14.60
2024-02-15T16:05:37.398Z,14.50
2024-02-15T16:08:04.503Z,14.30
2024-02-15T16:10:31.281Z,14.20
2024-02-15T16:12:58.592Z,14.10
2024-02-15T16:15:25.445Z,14.00
2024-02-15T16:17:52.426Z,13.90
2024-02-15T16:20:19.337Z,13.80
2024-02-15T16:22:46.584Z,13.70
2024-02-15T16:25:14.458Z,13.60
2024-02-15T16:27:42.005Z,13.40
2024-02-15T16:30:10.306Z,13.30
2024-02-15T16:32:38.118Z,13.20
2024-02-15T16:35:11.037Z,13.10
2024-02-15T16:37:38.541Z,13.00
2024-02-15T16:40:07.865Z,12.90
2024-02-15T16:42:34.479Z,12.80
2024-02-15T16:45:01.719Z,12.70
2024-02-15T16:47:28.462Z,12.70
2024-02-15T16:49:55.302Z,12.60
2024-02-15T16:52:21.971Z,12.60
2024-02-15T16:54:49.240Z,12.50
2024-02-15T16:57:16.246Z,12.40
2024-02-15T16:59:43.257Z,12.30
2024-02-15T17:02:09.858Z,12.20
2024-02-15T17:04:36.591Z,12.10
2024-02-15T17:07:03.543Z,12.00
2024-02-15T17:09:30.334Z,11.90
2024-02-15T17:11:57.586Z,11.80
2024-02-15T17:14:24.321Z,11.70
2024-02-15T17:16:51.855Z,11.70
2024-02-15T17:19:18.568Z,11.60
2024-02-15T17:21:46.043Z,11.50
2024-02-15T17:24:12.711Z,11.40
2024-02-15T17:26:45.895Z,11.30
2024-02-15T17:29:13.369Z,11.20
2024-02-15T17:31:42.962Z,11.10
2024-02-15T17:34:12.876Z,11.10
2024-02-15T17:36:40.381Z,11.00
2024-02-15T17:39:08.532Z,11.00
2024-02-15T17:41:35.251Z,11.00
2024-02-15T17:44:03.089Z,11.00
2024-02-15T17:46:30.325Z,10.90
2024-02-15T17:49:00.234Z,10.90
2024-02-15T17:51:27.181Z,10.90
2024-02-15T17:53:58.969Z,10.90
2024-02-15T17:56:26.341Z,10.90
2024-02-15T17:58:53.080Z,10.90
2024-02-15T18:01:21.743Z,10.80
2024-02-15T18:03:48.342Z,10.80
2024-02-15T18:06:15.067Z,10.80
2024-02-15T18:08:42.013Z,10.70
2024-02-15T18:11:09.979Z,10.70
2024-02-15T18:13:40.160Z,10.60
2024-02-15T18:16:09.002Z,10.60
2024-02-15T18:18:36.407Z,10.50
2024-02-15T18:21:03.218Z,10.50
2024-02-15T18:23:29.930Z,10.50
2024-02-15T18:25:56.907Z,10.40
2024-02-15T18:28:28.658Z,10.40
2024-02-15T18:30:56.924Z,10.30
2024-02-15T18:33:24.495Z,10.30
2024-02-15T18:35:51.294Z,10.30
2024-02-15T18:38:18.109Z,10.20
2024-02-15T18:40:44.713Z,10.20
2024-02-15T18:43:11.285Z,10.20
2024-02-15T18:45:37.899Z,10.10
2024-02-15T18:48:05.821Z,10.10
2024-02-15T18:50:35.854Z,10.00
2024-02-15T18:53:03.542Z,10.00
2024-02-15T18:55:31.216Z,10.00
2024-02-15T18:57:57.867Z,9.90
2024-02-15T19:00:34.134Z,9.90
2024-02-15T19:03:04.624Z,9.90
2024-02-15T19:05:32.502Z,9.90
2024-02-15T19:07:59.748Z,9.90
2024-02-15T19:10:26.809Z,9.90
2024-02-15T19:12:54.333Z,9.90
2024-02-15T19:15:22.152Z,9.90
2024-02-15T19:17:49.027Z,9.90
2024-02-15T19:20:15.887Z,9.90
2024-02-15T19:22:43.439Z,9.80
2024-02-15T19:25:16.440Z,9.70
2024-02-15T19:27:43.047Z,9.70
2024-02-15T19:30:11.646Z,9.60
2024-02-15T19:32:39.790Z,9.60
2024-02-15T19:35:07.797Z,9.50
2024-02-15T19:37:34.862Z,9.50
2024-02-15T19:40:07.510Z,9.40
2024-02-15T19:42:35.332Z,9.30
2024-02-15T19:45:01.962Z,9.20
2024-02-15T19:47:29.473Z,9.20
2024-02-15T19:49:56.412Z,9.20
2024-02-15T19:52:23.414Z,9.10
2024-02-15T19:54:50.111Z,9.00
2024-02-15T19:57:18.031Z,9.00
2024-02-15T19:59:44.845Z,8.90
2024-02-15T20:02:11.587Z,8.90
2024-02-15T20:04:38.447Z,8.80
2024-02-15T20:07:05.316Z,8.70
2024-02-15T20:09:40.534Z,8.60
2024-02-15T20:12:14.147Z,8.60
2024-02-15T20:14:41.036Z,8.60
2024-02-15T20:17:10.106Z,8.50
2024-02-15T20:19:36.853Z,8.50
2024-02-15T20:22:03.552Z,8.40
2024-02-15T20:24:30.252Z,8.40
2024-02-15T20:26:56.900Z,8.30
2024-02-15T20:29:25.052Z,8.30
2024-02-15T20:31:51.714Z,8.20
2024-02-15T20:34:18.527Z,8.10
2024-02-15T20:36:45.863Z,8.10
2024-02-15T20:39:12.636Z,8.10
2024-02-15T20:41:40.469Z,8.00
2024-02-15T20:44:09.690Z,8.00
2024-02-15T20:46:36.352Z,7.90
2024-02-15T20:49:04.857Z,7.90
2024-02-15T20:51:33.340Z,7.80
2024-02-15T20:54:00.173Z,7.80
2024-02-15T20:56:27.253Z,7.80
2024-02-15T20:58:53.861Z,7.70
2024-02-15T21:01:20.647Z,7.70
2024-02-15T21:03:47.981Z,7.60
2024-02-15T21:06:24.316Z,7.60
2024-02-15T21:08:53.881Z,7.60
2024-02-15T21:11:25.412Z,7.50
2024-02-15T21:13:52.570Z,7.50
2024-02-15T21:16:20.224Z,7.40
2024-02-15T21:18:47.765Z,7.40
2024-02-15T21:21:17.386Z,7.30
2024-02-15T21:23:44.232Z,7.30
2024-02-15T21:26:11.502Z,7.30
2024-02-15T21:28:38.637Z,7.30
2024-02-15T21:31:05.407Z,7.30
2024-02-15T21:33:32.175Z,7.20
2024-02-15T21:35:58.899Z,7.20
2024-02-15T21:38:25.520Z,7.10
2024-02-15T21:40:52.331Z,7.00
2024-02-15T21:43:18.990Z,7.00
2024-02-15T21:45:45.614Z,6.90
2024-02-15T21:48:12.909Z,6.90
2024-02-15T21:50:39.578Z,6.90
2024-02-15T21:53:06.256Z,6.80
2024-02-15T21:55:32.808Z,6.80
2024-02-15T21:57:59.630Z,6.80
2024-02-15T22:00:26.598Z,6.70
2024-02-15T22:02:53.284Z,6.70
2024-02-15T22:05:20.146Z,6.60
2024-02-15T22:07:46.888Z,6.50
2024-02-15T22:10:14.431Z,6.50
2024-02-15T22:12:41.510Z,6.50
2024-02-15T22:15:09.060Z,6.50
2024-02-15T22:17:35.684Z,6.50
2024-02-15T22:20:02.741Z,6.50
2024-02-15T22:22:29.882Z,6.50
2024-02-15T22:24:56.441Z,6.50
2024-02-15T22:27:23.331Z,6.40
2024-02-15T22:29:50.120Z,6.40
2024-02-15T22:32:18.325Z,6.40
2024-02-15T22:34:45.238Z,6.30
2024-02-15T22:37:14.343Z,6.30
2024-02-15T22:39:41.157Z,6.30
2024-02-15T22:42:07.903Z,6.20
2024-02-15T22:44:35.576Z,6.20
2024-02-15T22:47:02.657Z,6.10
2024-02-15T22:49:29.430Z,6.10
2024-02-15T22:51:56.089Z,6.10
2024-02-15T22:54:23.670Z,6.10
2024-02-15T22:56:50.347Z,6.10
2024-02-15T22:59:18.311Z,6.10
2024-02-15T23:01:47.130Z,6.00
2024-02-15T23:04:15.393Z,6.00
2024-02-15T23:06:42.061Z,5.90
2024-02-15T23:09:08.755Z,5.90
2024-02-15T23:11:37.283Z,5.90
2024-02-15T23:14:03.866Z,5.90
2024-02-15T23:16:30.446Z,5.90
2024-02-15T23:18:57.219Z,5.80
2024-02-15T23:21:24.009Z,5.80
2024-02-15T23:23:50.706Z,5.80
2024-02-15T23:26:17.295Z,5.80
2024-02-15T23:28:43.985Z,5.80
2024-02-15T23:31:10.670Z,5.80
2024-02-15T23:33:37.660Z,5.80
2024-02-15T23:36:23.166Z,5.80
2024-02-15T23:39:08.650Z,5.90
2024-02-15T23:41:35.268Z,5.90
2024-02-15T23:44:01.947Z,5.90
2024-02-15T23:46:28.578Z,6.00
2024-02-15T23:48:55.324Z,6.00
2024-02-15T23:51:22.085Z,6.00
2024-02-15T23:53:48.828Z,6.00
2024-02-15T23:56:15.550Z,6.00
2024-02-15T23:58:42.183Z,6.00
